Time;durP1;ratioP1;P1;durP2;ratioP2;P2;SDS_P1;SDS_P2;PMS_P1;PMS_P2;Temp;Humidity;BMP_temperature;BMP_pressure;BME280_temperature;BME280_humidity;BME280_pressure;Samples;Min_cycle;Max_cycle;Signal;HPM_P1;HPM_P2
2022/01/27 00:00:46;;;;;;;95.45;27.38;;;3.70;99.90;;;;;;4940099;29;20259;-87
2022/01/27 00:03:36;;;;;;;95.55;29.33;;;3.70;99.90;;;;;;4937976;29;20211;-86
2022/01/27 00:06:07;;;;;;;103.63;27.92;;;3.70;99.90;;;;;;4939454;29;20243;-87
2022/01/27 00:09:00;;;;;;;102.70;26.10;;;3.70;99.90;;;;;;4938587;29;20665;-87
2022/01/27 00:11:31;;;;;;;98.70;31.98;;;3.70;99.90;;;;;;4937969;29;20534;-87
2022/01/27 00:14:07;;;;;;;103.82;38.38;;;3.60;99.90;;;;;;4937213;29;20191;-86
2022/01/27 00:16:40;;;;;;;100.32;28.13;;;3.60;99.90;;;;;;4938423;29;20208;-86
2022/01/27 00:19:06;;;;;;;103.18;31.40;;;3.60;99.90;;;;;;4937427;29;20224;-87
2022/01/27 00:21:37;;;;;;;109.27;39.73;;;3.60;99.90;;;;;;4937697;29;20173;-87
2022/01/27 00:24:15;;;;;;;104.32;45.80;;;3.40;99.90;;;;;;4936771;29;20444;-87
2022/01/27 00:26:50;;;;;;;114.03;49.97;;;3.40;99.90;;;;;;4939462;29;20176;-86
2022/01/27 00:29:16;;;;;;;110.18;46.45;;;3.40;99.90;;;;;;4938022;29;20243;-87
2022/01/27 00:31:42;;;;;;;107.97;34.70;;;3.40;99.90;;;;;;4939583;29;20188;-87
2022/01/27 00:34:08;;;;;;;104.50;37.13;;;3.40;99.90;;;;;;4938824;29;20404;-87
2022/01/27 00:36:40;;;;;;;110.07;41.17;;;3.40;99.90;;;;;;4938862;29;20483;-86
2022/01/27 00:39:08;;;;;;;106.50;33.35;;;3.40;99.90;;;;;;4939881;29;20187;-87
2022/01/27 00:41:34;;;;;;;107.20;31.73;;;3.20;99.90;;;;;;4939465;29;20190;-87
2022/01/27 00:44:01;;;;;;;102.33;27.27;;;3.30;99.90;;;;;;4939381;29;20547;-86
2022/01/27 00:46:31;;;;;;;108.70;32.22;;;3.30;99.90;;;;;;4938658;29;20453;-87
2022/01/27 00:48:57;;;;;;;108.95;29.92;;;3.30;99.90;;;;;;4939377;29;20228;-87
2022/01/27 00:51:25;;;;;;;109.70;31.00;;;3.30;99.90;;;;;;4939366;29;20173;-87
2022/01/27 00:54:05;;;;;;;116.57;34.17;;;3.20;99.90;;;;;;4938147;29;20547;-87
2022/01/27 00:56:48;;;;;;;102.15;33.25;;;3.20;99.90;;;;;;4939561;29;20153;-87
2022/01/27 00:59:37;;;;;;;108.78;34.83;;;3.20;99.90;;;;;;4939229;29;20616;-87
2022/01/27 01:02:14;;;;;;;103.43;32.63;;;3.20;99.90;;;;;;4939363;29;20156;-87
2022/01/27 01:04:47;;;;;;;107.80;36.30;;;3.20;99.90;;;;;;4938518;29;20189;-87
2022/01/27 01:07:19;;;;;;;105.32;28.75;;;3.20;99.90;;;;;;4939720;29;20232;-86
2022/01/27 01:10:40;;;;;;;111.90;34.28;;;3.20;99.90;;;;;;4938103;29;20173;-87
2022/01/27 01:15:28;;;;;;;111.85;35.88;;;3.20;99.90;;;;;;4939793;29;20188;-86
2022/01/27 01:31:54;;;;;;;115.28;35.78;;;3.20;99.90;;;;;;4943215;29;20184;-86
2022/01/27 01:34:26;;;;;;;105.25;35.25;;;3.10;99.90;;;;;;4942067;29;20212;-86
2022/01/27 01:36:58;;;;;;;108.63;36.75;;;3.10;99.90;;;;;;4943131;29;20149;-86
2022/01/27 01:39:29;;;;;;;109.07;38.67;;;3.20;99.90;;;;;;4942076;29;20189;-87
2022/01/27 01:41:56;;;;;;;105.80;39.90;;;3.10;99.90;;;;;;4942107;29;20178;-86
2022/01/27 01:44:23;;;;;;;110.82;43.40;;;3.10;99.90;;;;;;5012194;23;20224;-84
2022/01/27 01:46:49;;;;;;;103.50;43.80;;;3.10;99.90;;;;;;4942837;29;20191;-84
2022/01/27 01:49:15;;;;;;;105.78;46.60;;;3.10;99.90;;;;;;4942902;29;20180;-85
2022/01/27 01:51:44;;;;;;;111.88;53.13;;;3.10;99.90;;;;;;4943430;29;20169;-85
2022/01/27 01:54:13;;;;;;;109.70;43.30;;;3.00;99.90;;;;;;4944133;29;20164;-84
2022/01/27 01:56:43;;;;;;;116.35;49.05;;;3.10;99.90;;;;;;4943897;29;20177;-84
2022/01/27 01:59:12;;;;;;;111.60;49.15;;;3.10;99.90;;;;;;4942984;29;20185;-84
2022/01/27 02:01:48;;;;;;;112.95;48.30;;;3.10;99.90;;;;;;4943043;29;20173;-85
2022/01/27 02:04:17;;;;;;;110.80;49.45;;;3.10;99.90;;;;;;4943944;29;20593;-85
2022/01/27 02:06:55;;;;;;;107.45;50.30;;;3.20;99.90;;;;;;4943820;29;20740;-85
2022/01/27 02:20:31;;;;;;;109.53;49.30;;;3.10;99.90;;;;;;4943915;29;20184;-84
2022/01/27 02:22:57;;;;;;;117.60;52.42;;;3.10;99.90;;;;;;4942361;29;20217;-85
2022/01/27 02:25:31;;;;;;;120.88;49.10;;;3.20;99.90;;;;;;4941831;29;20259;-84
2022/01/27 02:28:02;;;;;;;104.97;51.38;;;3.10;99.90;;;;;;4943756;29;20157;-84
2022/01/27 02:30:28;;;;;;;107.85;52.25;;;3.20;99.90;;;;;;4943613;29;20160;-84
2022/01/27 02:32:55;;;;;;;111.38;50.45;;;3.30;99.90;;;;;;4944150;29;20175;-84
2022/01/27 02:35:27;;;;;;;111.55;48.83;;;3.30;99.90;;;;;;4944315;29;20195;-84
2022/01/27 02:37:54;;;;;;;113.40;53.28;;;3.30;99.90;;;;;;4942122;29;20176;-85
2022/01/27 02:40:25;;;;;;;113.20;53.85;;;3.20;99.90;;;;;;4943730;29;20656;-85
2022/01/27 02:42:54;;;;;;;104.65;48.75;;;3.20;99.90;;;;;;4942160;29;20177;-85
2022/01/27 02:45:40;;;;;;;103.38;46.38;;;3.10;99.90;;;;;;4942226;29;20695;-85
2022/01/27 02:48:06;;;;;;;103.53;49.53;;;3.20;99.90;;;;;;4941923;29;20196;-84
2022/01/27 02:50:35;;;;;;;106.67;51.87;;;3.20;99.90;;;;;;4943049;29;20175;-85
2022/01/27 02:53:04;;;;;;;106.68;50.17;;;3.20;99.90;;;;;;4941497;29;20699;-84
2022/01/27 02:55:40;;;;;;;110.75;53.33;;;3.20;99.90;;;;;;4941195;29;20220;-85
2022/01/27 02:58:06;;;;;;;107.00;52.78;;;3.20;99.90;;;;;;4942912;29;20231;-84
2022/01/27 03:00:33;;;;;;;108.10;47.07;;;3.20;99.90;;;;;;4942555;29;20212;-85
2022/01/27 03:03:05;;;;;;;110.95;46.65;;;3.20;99.90;;;;;;4942756;29;20404;-84
2022/01/27 03:05:35;;;;;;;108.72;55.83;;;3.20;99.90;;;;;;4941922;29;20606;-84
2022/01/27 03:08:01;;;;;;;105.03;50.42;;;3.20;99.90;;;;;;4943171;29;20158;-84
2022/01/27 03:10:34;;;;;;;106.13;52.17;;;3.10;99.90;;;;;;4943550;29;20241;-84
2022/01/27 03:13:00;;;;;;;106.75;54.65;;;3.10;99.90;;;;;;4943211;29;20393;-84
2022/01/27 03:15:29;;;;;;;99.13;46.17;;;3.10;99.90;;;;;;4943405;29;20185;-84
2022/01/27 03:17:58;;;;;;;115.55;63.30;;;3.10;99.90;;;;;;4942862;29;20169;-85
2022/01/27 03:20:31;;;;;;;104.32;46.63;;;3.10;99.90;;;;;;4941507;29;20205;-84
2022/01/27 03:22:57;;;;;;;106.68;49.70;;;3.20;99.90;;;;;;4942831;29;20141;-84
2022/01/27 03:25:23;;;;;;;112.30;48.40;;;3.10;99.90;;;;;;4941793;29;20235;-84
2022/01/27 03:27:48;;;;;;;101.10;55.50;;;3.10;99.90;;;;;;4941497;29;20559;-85
2022/01/27 03:30:16;;;;;;;98.27;43.47;;;3.10;99.90;;;;;;4942327;29;20412;-84
2022/01/27 03:32:45;;;;;;;100.53;48.55;;;3.20;99.90;;;;;;4942053;29;20659;-85
2022/01/27 03:35:12;;;;;;;96.50;45.72;;;3.10;99.90;;;;;;4940753;29;20204;-85
2022/01/27 03:37:38;;;;;;;100.25;47.35;;;3.20;99.90;;;;;;4942345;29;20172;-84
2022/01/27 03:40:04;;;;;;;111.23;54.30;;;3.20;99.90;;;;;;4941953;29;20189;-84
2022/01/27 03:42:30;;;;;;;107.43;45.78;;;3.10;99.90;;;;;;4941175;29;20520;-85
2022/01/27 03:44:56;;;;;;;110.23;49.50;;;3.10;99.90;;;;;;4942299;29;20207;-84
2022/01/27 03:47:22;;;;;;;102.47;43.43;;;3.10;99.90;;;;;;4942222;29;20436;-85
2022/01/27 03:49:48;;;;;;;100.45;46.33;;;3.20;99.90;;;;;;4942027;29;20177;-84
2022/01/27 03:52:13;;;;;;;101.87;43.67;;;3.10;99.90;;;;;;4939878;29;20757;-84
2022/01/27 03:54:39;;;;;;;99.43;44.43;;;3.10;99.90;;;;;;4941868;29;20188;-84
2022/01/27 03:57:05;;;;;;;96.77;37.20;;;3.10;99.90;;;;;;4940776;29;20192;-84
2022/01/27 03:59:31;;;;;;;96.20;43.13;;;3.20;99.90;;;;;;4941513;29;20239;-84
2022/01/27 04:01:57;;;;;;;98.93;40.03;;;3.20;99.90;;;;;;4939835;29;20200;-84
2022/01/27 04:04:24;;;;;;;97.43;35.17;;;3.20;99.90;;;;;;4939625;29;20276;-84
2022/01/27 04:06:52;;;;;;;94.03;28.92;;;3.30;99.90;;;;;;4941694;29;20237;-84
2022/01/27 04:09:18;;;;;;;88.78;24.05;;;3.30;99.90;;;;;;4940100;29;20172;-85
2022/01/27 04:11:44;;;;;;;99.70;21.47;;;3.30;99.90;;;;;;4940050;29;20178;-84
2022/01/27 04:14:12;;;;;;;87.13;20.27;;;3.40;99.90;;;;;;4940032;29;20432;-84
2022/01/27 04:16:38;;;;;;;91.03;21.08;;;3.40;99.90;;;;;;4941618;29;20200;-85
2022/01/27 04:19:04;;;;;;;84.93;24.67;;;3.30;99.90;;;;;;4939817;29;20168;-85
2022/01/27 04:21:50;;;;;;;90.10;19.70;;;3.30;99.90;;;;;;4941202;29;20164;-85
2022/01/27 04:24:17;;;;;;;87.63;21.15;;;3.30;99.90;;;;;;4941492;29;20381;-84
2022/01/27 04:26:47;;;;;;;98.47;23.13;;;3.30;99.90;;;;;;4939881;29;20178;-84
2022/01/27 04:29:15;;;;;;;89.78;20.92;;;3.40;99.90;;;;;;4939762;29;20172;-84
2022/01/27 04:31:45;;;;;;;91.18;23.70;;;3.30;99.90;;;;;;4939999;29;20172;-85
2022/01/27 04:34:12;;;;;;;93.45;21.05;;;3.30;99.90;;;;;;4940754;29;20177;-84
2022/01/27 04:36:39;;;;;;;96.97;21.92;;;3.30;99.90;;;;;;4941432;29;20175;-84
2022/01/27 04:39:16;;;;;;;84.13;19.10;;;3.40;99.90;;;;;;4941208;29;20192;-84
2022/01/27 04:47:15;;;;;;;94.07;24.85;;;3.30;99.90;;;;;;4938492;29;20176;-84
2022/01/27 04:49:41;;;;;;;93.57;21.00;;;3.30;99.90;;;;;;4939963;29;20532;-84
2022/01/27 04:52:08;;;;;;;94.93;21.00;;;3.40;99.90;;;;;;4941921;29;20231;-84
2022/01/27 04:54:53;;;;;;;89.00;19.65;;;3.40;99.90;;;;;;4941072;29;20184;-84
2022/01/27 04:57:18;;;;;;;85.85;18.55;;;3.40;99.90;;;;;;4941373;29;20152;-84
2022/01/27 04:59:45;;;;;;;88.83;21.43;;;3.40;99.90;;;;;;4941114;29;20200;-84
2022/01/27 05:02:40;;;;;;;94.63;22.67;;;3.40;99.90;;;;;;4939597;29;20169;-85
2022/01/27 05:04:56;;;;;;;89.78;20.00;;;3.30;99.90;;;;;;4944797;29;20263;-85
2022/01/27 05:07:22;;;;;;;90.00;23.07;;;3.30;99.90;;;;;;4943796;29;20172;-84
2022/01/27 05:09:55;;;;;;;88.73;27.03;;;3.30;99.90;;;;;;4944954;29;20176;-84
2022/01/27 05:12:34;;;;;;;90.03;28.13;;;3.30;99.90;;;;;;4945269;29;20160;-85
2022/01/27 05:15:00;;;;;;;96.60;24.08;;;3.30;99.90;;;;;;4945095;29;20200;-85
2022/01/27 05:17:26;;;;;;;97.07;23.50;;;3.30;99.90;;;;;;4944937;29;20172;-84
2022/01/27 05:19:51;;;;;;;91.47;27.07;;;3.30;99.90;;;;;;4944464;29;20626;-84
2022/01/27 05:22:18;;;;;;;92.57;24.60;;;3.30;99.90;;;;;;4944063;29;20424;-85
2022/01/27 05:24:43;;;;;;;88.25;23.70;;;3.40;99.90;;;;;;4944020;29;20656;-84
2022/01/27 05:27:12;;;;;;;94.70;28.90;;;3.40;99.90;;;;;;4944221;29;20164;-85
2022/01/27 05:29:41;;;;;;;91.60;25.35;;;3.30;99.90;;;;;;4944000;29;20177;-84
2022/01/27 05:32:07;;;;;;;94.68;30.80;;;3.30;99.90;;;;;;4942964;29;20172;-84
2022/01/27 05:34:33;;;;;;;93.72;39.20;;;3.30;99.90;;;;;;4943858;29;20200;-84
2022/01/27 05:36:58;;;;;;;92.30;35.97;;;3.30;99.90;;;;;;4944808;29;20168;-85
2022/01/27 05:39:24;;;;;;;92.73;28.77;;;3.30;99.90;;;;;;4944074;29;20451;-84
2022/01/27 05:41:50;;;;;;;95.60;37.63;;;3.40;99.90;;;;;;4944816;29;20219;-84
2022/01/27 05:44:15;;;;;;;95.37;36.27;;;3.40;99.90;;;;;;4944488;29;20263;-84
2022/01/27 05:46:41;;;;;;;93.10;28.47;;;3.30;99.90;;;;;;4944546;29;20149;-85
2022/01/27 05:49:07;;;;;;;94.33;35.03;;;3.40;99.90;;;;;;4942618;29;20173;-84
2022/01/27 05:51:33;;;;;;;94.83;31.83;;;3.40;99.90;;;;;;4943511;29;20169;-84
2022/01/27 05:53:59;;;;;;;92.32;30.52;;;3.40;99.90;;;;;;4944201;29;20173;-84
2022/01/27 05:56:25;;;;;;;99.33;32.17;;;3.40;99.90;;;;;;4944533;29;20161;-84
2022/01/27 05:58:51;;;;;;;92.70;27.50;;;3.50;99.90;;;;;;4943783;29;20986;-84
2022/01/27 06:01:16;;;;;;;95.67;32.67;;;3.60;99.90;;;;;;4944079;29;20448;-84
2022/01/27 06:03:42;;;;;;;100.90;46.93;;;3.70;99.90;;;;;;4943879;29;20164;-84
2022/01/27 06:06:08;;;;;;;106.53;48.70;;;3.70;99.90;;;;;;4943802;29;20193;-84
2022/01/27 06:08:37;;;;;;;104.55;60.78;;;3.80;99.90;;;;;;4943211;29;20407;-84
2022/01/27 06:11:03;;;;;;;102.15;61.00;;;3.90;99.90;;;;;;4943853;29;20581;-84
2022/01/27 06:13:29;;;;;;;107.57;65.43;;;4.00;99.90;;;;;;4944201;29;20169;-84
2022/01/27 06:15:55;;;;;;;104.57;62.10;;;4.10;99.90;;;;;;4942773;29;20791;-85
2022/01/27 06:18:20;;;;;;;101.90;54.80;;;4.20;99.90;;;;;;4943030;29;20775;-84
2022/01/27 06:20:49;;;;;;;99.53;55.50;;;4.30;99.90;;;;;;4943756;29;20440;-84
2022/01/27 06:23:15;;;;;;;101.63;53.72;;;4.40;99.90;;;;;;4941848;29;20507;-84
2022/01/27 06:25:42;;;;;;;99.23;50.17;;;4.50;99.90;;;;;;4942019;29;20184;-85
2022/01/27 06:28:07;;;;;;;104.25;53.92;;;4.60;99.90;;;;;;4943935;29;20405;-85
2022/01/27 06:30:36;;;;;;;116.97;52.00;;;4.60;99.90;;;;;;4943139;29;20180;-85
2022/01/27 06:33:06;;;;;;;97.80;48.97;;;4.70;99.90;;;;;;4942859;29;20653;-84
2022/01/27 06:35:33;;;;;;;110.55;56.53;;;4.70;99.90;;;;;;4942258;29;20716;-85
2022/01/27 06:37:58;;;;;;;105.43;63.35;;;4.80;99.90;;;;;;4943116;29;20333;-85
2022/01/27 06:40:27;;;;;;;104.30;66.17;;;4.80;99.90;;;;;;4942536;29;20188;-85
2022/01/27 06:42:53;;;;;;;106.63;72.20;;;4.90;99.90;;;;;;4942833;29;20429;-85
2022/01/27 06:45:19;;;;;;;106.90;78.97;;;5.00;99.90;;;;;;4943454;29;20200;-84
2022/01/27 06:47:47;;;;;;;109.97;77.40;;;5.00;99.90;;;;;;4943548;29;20219;-84
2022/01/27 06:50:13;;;;;;;110.90;85.63;;;5.00;99.90;;;;;;4941883;29;20176;-85
2022/01/27 06:52:41;;;;;;;106.97;81.23;;;5.00;99.90;;;;;;4942542;29;20177;-84
2022/01/27 06:55:07;;;;;;;107.75;67.45;;;5.10;99.90;;;;;;4942656;29;20600;-85
2022/01/27 06:57:33;;;;;;;106.88;72.80;;;5.00;99.90;;;;;;4942759;29;20203;-86
2022/01/27 07:00:00;;;;;;;106.50;69.70;;;5.00;99.90;;;;;;4942078;29;20576;-85
2022/01/27 07:02:25;;;;;;;103.95;69.50;;;5.00;99.90;;;;;;4943445;29;20161;-85
2022/01/27 07:04:51;;;;;;;106.47;80.17;;;5.00;99.90;;;;;;4942458;29;20191;-85
2022/01/27 07:07:17;;;;;;;111.90;87.10;;;5.00;99.90;;;;;;4943364;29;20548;-85
2022/01/27 07:09:43;;;;;;;106.83;64.93;;;5.00;99.90;;;;;;4942663;29;20411;-85
2022/01/27 07:12:17;;;;;;;97.47;51.73;;;5.00;99.90;;;;;;4942873;29;20172;-85
2022/01/27 07:14:46;;;;;;;115.18;66.85;;;5.00;99.90;;;;;;4941347;29;20563;-85
2022/01/27 07:17:13;;;;;;;106.20;68.05;;;5.00;99.90;;;;;;4942788;29;20533;-85
2022/01/27 07:19:39;;;;;;;99.50;41.67;;;5.00;99.90;;;;;;4942245;29;20200;-85
2022/01/27 07:22:05;;;;;;;96.67;40.57;;;5.00;99.90;;;;;;4942048;29;20183;-85
2022/01/27 07:24:30;;;;;;;98.17;42.77;;;5.00;99.90;;;;;;4942360;29;20720;-85
2022/01/27 07:26:56;;;;;;;94.37;39.80;;;5.00;99.90;;;;;;4942724;29;20192;-85
2022/01/27 07:29:22;;;;;;;97.67;46.73;;;5.00;99.90;;;;;;4941444;29;20235;-85
2022/01/27 07:31:47;;;;;;;99.53;54.30;;;5.00;99.90;;;;;;4942702;29;20240;-86
2022/01/27 07:34:13;;;;;;;106.83;74.97;;;5.10;99.90;;;;;;4941415;29;20168;-86
2022/01/27 07:36:40;;;;;;;111.47;63.90;;;5.10;99.90;;;;;;4942125;29;20753;-86
2022/01/27 07:39:12;;;;;;;106.45;63.85;;;5.10;99.90;;;;;;4941006;29;20172;-85
2022/01/27 07:41:38;;;;;;;108.60;75.28;;;5.10;99.90;;;;;;4941277;29;20165;-85
2022/01/27 07:44:37;;;;;;;114.77;83.93;;;5.10;99.90;;;;;;4955577;23;20231;-87
2022/01/27 07:47:22;;;;;;;99.43;64.18;;;5.20;99.90;;;;;;4918513;29;20427;-87
2022/01/27 07:50:37;;;;;;;122.53;107.35;;;5.20;99.90;;;;;;4919377;29;20185;-87
2022/01/27 07:52:59;;;;;;;113.20;81.97;;;5.30;99.90;;;;;;4923430;29;20213;-87
2022/01/27 07:55:43;;;;;;;107.30;83.47;;;5.30;99.90;;;;;;4920872;29;20212;-87
2022/01/27 07:58:12;;;;;;;106.72;87.72;;;5.40;99.90;;;;;;4919529;29;20530;-87
2022/01/27 08:00:50;;;;;;;104.00;75.95;;;5.40;99.90;;;;;;4918200;29;20260;-87
2022/01/27 08:03:30;;;;;;;113.30;82.85;;;5.60;99.90;;;;;;4919223;29;20207;-87
2022/01/27 08:06:33;;;;;;;106.38;79.68;;;5.60;99.90;;;;;;4919282;29;20188;-88
2022/01/27 08:09:02;;;;;;;117.80;99.65;;;5.70;99.90;;;;;;4919758;29;20601;-87
2022/01/27 08:11:28;;;;;;;106.68;66.38;;;5.80;99.90;;;;;;4919066;29;20173;-88
2022/01/27 08:14:02;;;;;;;118.90;91.53;;;5.80;99.90;;;;;;4919716;29;20193;-88
2022/01/27 08:17:17;;;;;;;110.70;78.60;;;5.80;99.90;;;;;;4920422;29;20739;-88
2022/01/27 08:20:13;;;;;;;125.97;97.80;;;5.90;99.90;;;;;;4908812;29;20209;-88
2022/01/27 08:22:55;;;;;;;114.93;102.15;;;5.90;99.90;;;;;;4903488;29;20716;-88
2022/01/27 08:25:29;;;;;;;122.15;86.70;;;5.90;99.90;;;;;;4919319;29;20244;-88
2022/01/27 08:27:58;;;;;;;136.45;122.57;;;6.00;99.90;;;;;;4934967;29;20173;-87
2022/01/27 08:30:37;;;;;;;112.32;89.57;;;6.00;99.90;;;;;;4918769;29;20173;-88
2022/01/27 08:33:14;;;;;;;114.32;88.88;;;6.10;99.90;;;;;;4934888;29;20259;-88
2022/01/27 08:36:03;;;;;;;109.72;87.63;;;6.10;99.90;;;;;;4918825;29;20185;-88
2022/01/27 08:38:32;;;;;;;119.93;102.32;;;6.10;99.90;;;;;;4918786;29;20180;-88
2022/01/27 08:41:05;;;;;;;114.57;98.90;;;6.10;99.90;;;;;;4919399;29;20200;-88
2022/01/27 08:43:33;;;;;;;115.82;94.65;;;6.10;99.90;;;;;;4936118;29;20534;-89
2022/01/27 08:46:38;;;;;;;130.43;116.25;;;6.00;99.90;;;;;;4933127;29;20280;-88
2022/01/27 08:49:06;;;;;;;109.25;85.13;;;6.10;99.90;;;;;;4919745;29;20157;-87
2022/01/27 08:51:38;;;;;;;114.07;99.68;;;6.10;99.90;;;;;;4917226;29;20169;-88
2022/01/27 08:59:41;;;;;;;119.80;87.13;;;6.10;99.90;;;;;;4919348;29;20239;-87
2022/01/27 09:05:56;;;;;;;115.50;90.78;;;6.20;99.90;;;;;;4897754;29;20198;-88
2022/01/27 09:08:21;;;;;;;108.60;80.95;;;6.20;99.90;;;;;;4899323;29;20185;-88
2022/01/27 09:10:50;;;;;;;118.50;83.00;;;6.20;99.90;;;;;;4918535;29;20150;-87
2022/01/27 09:13:25;;;;;;;103.55;57.28;;;6.20;99.90;;;;;;4932694;29;20264;-87
2022/01/27 09:15:53;;;;;;;111.20;83.10;;;6.20;99.90;;;;;;4917642;29;20196;-87
2022/01/27 09:18:28;;;;;;;104.25;57.13;;;6.20;99.90;;;;;;4916632;29;20237;-87
2022/01/27 09:21:56;;;;;;;100.78;52.13;;;6.20;99.90;;;;;;4917414;29;20271;-88
2022/01/27 09:25:14;;;;;;;109.70;54.00;;;6.30;99.90;;;;;;4914002;29;20181;-88
2022/01/27 09:30:18;;;;;;;100.85;51.47;;;6.30;99.90;;;;;;4918618;29;20172;-88
2022/01/27 09:32:48;;;;;;;102.70;51.85;;;6.30;99.90;;;;;;4917963;29;20165;-87
2022/01/27 09:35:27;;;;;;;99.30;53.83;;;6.30;99.90;;;;;;4918403;29;20688;-87
2022/01/27 09:37:59;;;;;;;126.30;93.10;;;6.30;99.90;;;;;;4933431;29;20180;-87
2022/01/27 09:40:27;;;;;;;115.78;81.75;;;6.30;99.90;;;;;;4933972;29;20665;-86
2022/01/27 09:42:59;;;;;;;101.88;61.33;;;6.20;99.90;;;;;;4919319;29;20172;-87
2022/01/27 09:45:26;;;;;;;104.35;74.63;;;6.20;99.90;;;;;;4916863;29;20280;-87
2022/01/27 09:48:54;;;;;;;;;;;;;;;;;;;;;
2022/01/27 09:52:06;;;;;;;110.57;76.40;;;6.20;99.90;;;;;;4920717;29;20613;-87
2022/01/27 09:54:34;;;;;;;98.68;54.45;;;6.10;99.90;;;;;;4920487;29;20205;-87
2022/01/27 09:57:00;;;;;;;149.70;135.02;;;6.10;99.90;;;;;;4919761;29;20192;-86
2022/01/27 09:59:35;;;;;;;118.45;102.03;;;6.10;99.90;;;;;;4935486;29;20200;-87
2022/01/27 10:02:07;;;;;;;122.80;103.45;;;6.00;99.90;;;;;;4921959;29;20508;-87
2022/01/27 10:04:48;;;;;;;163.40;149.10;;;6.00;99.90;;;;;;4921707;29;20229;-86
2022/01/27 10:07:22;;;;;;;110.30;93.65;;;6.00;99.90;;;;;;4921055;29;20166;-87
2022/01/27 10:10:23;;;;;;;119.50;106.60;;;6.00;99.90;;;;;;4921179;29;20224;-86
2022/01/27 10:13:00;;;;;;;125.95;112.28;;;6.00;99.90;;;;;;4882172;29;20250;-86
2022/01/27 10:15:25;;;;;;;187.45;172.05;;;6.00;99.90;;;;;;4876759;29;20213;-86
2022/01/27 10:18:38;;;;;;;171.83;156.97;;;6.00;99.90;;;;;;4921575;29;20193;-87
2022/01/27 10:21:13;;;;;;;111.03;86.78;;;6.10;99.90;;;;;;4930375;29;20468;-87
2022/01/27 10:23:46;;;;;;;110.35;89.85;;;6.10;99.90;;;;;;4921330;29;20157;-87
2022/01/27 10:26:41;;;;;;;109.65;83.10;;;6.10;99.90;;;;;;4920489;29;20228;-87
2022/01/27 10:29:38;;;;;;;132.27;119.32;;;6.10;99.90;;;;;;4935332;29;20169;-87
2022/01/27 10:32:10;;;;;;;116.88;104.38;;;6.20;99.90;;;;;;4935414;29;20184;-86
2022/01/27 10:34:56;;;;;;;177.18;162.40;;;6.20;99.90;;;;;;4921419;29;20181;-87
2022/01/27 10:37:27;;;;;;;114.35;100.82;;;6.20;99.90;;;;;;4920844;29;20525;-86
2022/01/27 10:39:53;;;;;;;119.28;106.72;;;6.20;99.90;;;;;;4935291;29;20197;-87
2022/01/27 10:42:24;;;;;;;169.10;154.60;;;6.20;99.90;;;;;;4920736;29;20176;-86
2022/01/27 10:44:56;;;;;;;111.20;91.60;;;6.20;99.90;;;;;;4920400;29;20188;-87
2022/01/27 10:47:29;;;;;;;123.35;110.55;;;6.20;99.90;;;;;;4920753;29;20164;-87
2022/01/27 10:50:02;;;;;;;120.68;108.45;;;6.20;99.90;;;;;;4920875;29;20549;-86
2022/01/27 10:55:33;;;;;;;112.38;100.63;;;6.20;99.90;;;;;;4920206;29;20580;-86
2022/01/27 10:57:59;;;;;;;131.50;118.13;;;6.20;99.90;;;;;;4934925;29;20304;-86
2022/01/27 11:00:24;;;;;;;102.20;81.87;;;6.20;99.90;;;;;;4919761;29;20261;-86
2022/01/27 11:02:56;;;;;;;146.23;132.33;;;6.30;99.90;;;;;;4935222;29;20177;-86
2022/01/27 11:05:41;;;;;;;119.70;106.47;;;6.30;99.90;;;;;;4934284;29;20946;-87
2022/01/27 11:08:30;;;;;;;165.38;151.27;;;6.30;99.90;;;;;;4934501;29;20650;-87
2022/01/27 11:11:16;;;;;;;110.65;90.85;;;6.40;99.90;;;;;;4934688;29;20193;-88
2022/01/27 11:16:49;;;;;;;134.23;121.03;;;6.30;99.90;;;;;;4918301;29;20181;-88
2022/01/27 11:27:50;;;;;;;106.28;91.18;;;6.40;99.90;;;;;;4939611;29;20168;-88
2022/01/27 11:31:04;;;;;;;;;;;;;;;;;;;;;
2022/01/27 11:34:01;;;;;;;94.43;63.05;;;6.50;99.90;;;;;;4939838;29;20610;-88
2022/01/27 11:37:18;;;;;;;;;;;;;;;;;;;;;
2022/01/27 11:40:26;;;;;;;181.63;166.55;;;6.60;99.90;;;;;;4901882;29;20733;-87
2022/01/27 11:43:24;;;;;;;;;;;;;;;;;;;;;
2022/01/27 11:47:03;;;;;;;;;;;;;;;;;;;;;
2022/01/27 11:50:18;;;;;;;89.97;55.55;;;6.70;99.90;;;;;;4918197;29;20233;-88
2022/01/27 11:53:23;;;;;;;90.53;57.58;;;6.80;99.90;;;;;;4919610;29;20177;-87
2022/01/27 11:59:45;;;;;;;92.75;62.65;;;6.80;99.90;;;;;;4908760;29;20715;-89
2022/01/27 12:02:36;;;;;;;90.68;54.10;;;6.80;99.90;;;;;;4919334;29;20178;-88
2022/01/27 12:05:31;;;;;;;91.28;59.70;;;6.80;99.90;;;;;;4917322;29;20205;-87
2022/01/27 12:08:29;;;;;;;89.95;59.40;;;6.80;99.90;;;;;;4917659;29;20182;-87
2022/01/27 12:11:01;;;;;;;103.88;87.45;;;6.70;99.90;;;;;;4917861;29;20197;-87
2022/01/27 12:14:08;;;;;;;95.28;65.70;;;6.80;99.90;;;;;;4917749;29;20185;-87
2022/01/27 12:20:16;;;;;;;108.70;95.20;;;6.80;99.90;;;;;;4916783;29;20207;-87
2022/01/27 12:22:44;;;;;;;85.53;47.45;;;6.70;99.90;;;;;;4918518;29;20145;-87
2022/01/27 12:29:20;;;;;;;127.70;115.00;;;6.70;99.90;;;;;;4908474;29;20236;-88
2022/01/27 12:32:15;;;;;;;107.22;95.72;;;6.70;99.90;;;;;;4880906;29;20174;-86
2022/01/27 12:38:07;;;;;;;94.28;67.93;;;6.70;99.90;;;;;;4859646;29;20183;-87
2022/01/27 12:43:40;;;;;;;103.40;83.93;;;6.70;99.90;;;;;;4897476;29;20188;-87
2022/01/27 13:03:28;;;;;;;80.75;38.17;;;6.80;99.90;;;;;;4820926;29;20177;-87
2022/01/27 13:13:36;;;;;;;78.70;35.45;;;6.80;99.90;;;;;;4780585;29;20184;-88
2022/01/27 13:22:53;;;;;;;88.35;49.03;;;6.90;99.90;;;;;;4916433;29;20222;-87
2022/01/27 13:48:22;;;;;;;89.38;52.08;;;7.00;99.90;;;;;;4925630;29;20209;-84
2022/01/27 13:50:57;;;;;;;84.15;47.35;;;7.10;99.90;;;;;;4927251;29;20157;-85
2022/01/27 13:53:23;;;;;;;90.32;56.08;;;7.10;99.90;;;;;;4925439;29;20180;-85
2022/01/27 13:56:04;;;;;;;88.80;49.60;;;7.10;99.90;;;;;;4927152;29;20196;-85
2022/01/27 13:58:33;;;;;;;93.22;70.40;;;7.10;99.90;;;;;;4926610;29;20180;-85
2022/01/27 14:01:13;;;;;;;78.05;29.70;;;7.10;99.90;;;;;;4927788;29;20204;-85
2022/01/27 14:03:46;;;;;;;79.03;33.65;;;7.10;99.90;;;;;;4926858;29;20176;-85
2022/01/27 14:06:13;;;;;;;81.38;41.90;;;7.10;99.90;;;;;;4927379;29;20189;-86
2022/01/27 14:08:46;;;;;;;82.60;36.67;;;7.10;99.90;;;;;;4925907;29;20510;-85
2022/01/27 14:11:19;;;;;;;82.25;44.83;;;7.10;99.90;;;;;;4927759;29;20233;-85
2022/01/27 14:13:56;;;;;;;81.43;40.10;;;7.10;99.90;;;;;;4925702;29;20260;-85
2022/01/27 14:16:30;;;;;;;81.60;42.35;;;7.10;99.90;;;;;;4927831;29;20193;-85
2022/01/27 14:18:56;;;;;;;79.43;34.97;;;7.10;99.90;;;;;;4928026;29;20255;-85
2022/01/27 14:21:25;;;;;;;85.53;38.67;;;7.10;99.90;;;;;;4925026;29;20684;-85
2022/01/27 14:28:52;;;;;;;81.28;43.17;;;7.20;99.90;;;;;;4925645;29;20170;-85
2022/01/27 14:31:19;;;;;;;81.30;41.75;;;7.20;99.90;;;;;;4926487;29;20165;-85
2022/01/27 14:33:45;;;;;;;81.70;38.95;;;7.20;99.90;;;;;;4926635;29;20165;-85
2022/01/27 14:36:12;;;;;;;92.35;55.78;;;7.20;99.90;;;;;;4924789;29;20203;-85
2022/01/27 14:38:39;;;;;;;79.78;34.53;;;7.30;99.90;;;;;;4924913;29;20177;-85
2022/01/27 14:41:06;;;;;;;82.97;39.65;;;7.30;99.90;;;;;;4925419;29;20265;-84
2022/01/27 14:43:32;;;;;;;82.97;44.83;;;7.30;99.90;;;;;;4925738;29;20197;-85
2022/01/27 14:45:59;;;;;;;80.15;39.00;;;7.40;99.90;;;;;;4923758;29;20194;-84
2022/01/27 14:48:34;;;;;;;83.95;40.92;;;7.40;99.90;;;;;;4926366;29;20164;-85
2022/01/27 14:50:59;;;;;;;82.22;42.00;;;7.40;99.90;;;;;;4925805;29;20172;-85
2022/01/27 14:53:25;;;;;;;83.50;46.00;;;7.50;99.90;;;;;;4924688;29;20173;-85
2022/01/27 14:55:51;;;;;;;118.57;103.07;;;7.50;99.90;;;;;;4924467;29;20197;-85
2022/01/27 14:58:16;;;;;;;186.27;171.03;;;7.50;99.90;;;;;;4925349;29;20205;-85
2022/01/27 15:00:42;;;;;;;79.30;33.27;;;7.50;99.90;;;;;;4926123;29;20218;-85
2022/01/27 15:03:11;;;;;;;93.30;54.63;;;7.50;99.90;;;;;;4925177;29;20172;-85
2022/01/27 15:05:37;;;;;;;85.07;45.83;;;7.50;99.90;;;;;;4924173;29;20189;-85
2022/01/27 15:08:03;;;;;;;82.30;36.83;;;7.50;99.90;;;;;;4924676;29;20185;-85
2022/01/27 15:10:28;;;;;;;101.88;77.05;;;7.50;99.90;;;;;;4923772;29;20173;-85
2022/01/27 15:12:55;;;;;;;100.33;78.33;;;7.50;99.90;;;;;;4925778;29;20193;-85
2022/01/27 15:20:55;;;;;;;83.15;38.88;;;7.50;99.90;;;;;;4925079;29;20203;-85
2022/01/27 15:23:21;;;;;;;90.45;55.22;;;7.50;99.90;;;;;;4923935;29;20201;-85
2022/01/27 15:25:48;;;;;;;98.43;64.17;;;7.60;99.90;;;;;;4924767;29;20192;-85
2022/01/27 15:28:16;;;;;;;90.68;48.05;;;7.50;99.90;;;;;;4923946;29;20433;-85